sensor_id;sensor_type;location;lat;lon;timestamp;P1;durP1;ratioP1;P2;durP2;ratioP2
1020;SDS011;499;42.648;23.270;2022-10-18T00:00:16;0.90;;;0.70;;
1020;SDS011;499;42.648;23.270;2022-10-18T00:02:43;1.27;;;0.80;;
1020;SDS011;499;42.648;23.270;2022-10-18T00:05:11;0.90;;;0.70;;
1020;SDS011;499;42.648;23.270;2022-10-18T00:07:38;1.00;;;0.90;;
1020;SDS011;499;42.648;23.270;2022-10-18T00:10:05;0.90;;;0.80;;
1020;SDS011;499;42.648;23.270;2022-10-18T00:12:33;0.90;;;0.73;;
1020;SDS011;499;42.648;23.270;2022-10-18T00:15:02;1.40;;;1.17;;
1020;SDS011;499;42.648;23.270;2022-10-18T00:17:34;0.90;;;0.70;;
1020;SDS011;499;42.648;23.270;2022-10-18T00:20:01;0.90;;;0.80;;
1020;SDS011;499;42.648;23.270;2022-10-18T00:22:28;1.10;;;0.80;;
1020;SDS011;499;42.648;23.270;2022-10-18T00:24:55;0.90;;;0.70;;
1020;SDS011;499;42.648;23.270;2022-10-18T00:27:22;2.30;;;1.13;;
1020;SDS011;499;42.648;23.270;2022-10-18T00:29:51;0.90;;;0.60;;
1020;SDS011;499;42.648;23.270;2022-10-18T00:32:18;1.00;;;0.90;;
1020;SDS011;499;42.648;23.270;2022-10-18T00:34:47;0.90;;;0.70;;
1020;SDS011;499;42.648;23.270;2022-10-18T00:37:14;0.90;;;0.80;;
1020;SDS011;499;42.648;23.270;2022-10-18T00:39:41;0.90;;;0.80;;
1020;SDS011;499;42.648;23.270;2022-10-18T00:42:09;1.10;;;0.90;;
1020;SDS011;499;42.648;23.270;2022-10-18T00:45:01;0.90;;;0.80;;
1020;SDS011;499;42.648;23.270;2022-10-18T00:47:39;0.90;;;0.70;;
1020;SDS011;499;42.648;23.270;2022-10-18T00:50:08;0.90;;;0.70;;
1020;SDS011;499;42.648;23.270;2022-10-18T00:52:39;1.77;;;1.03;;
1020;SDS011;499;42.648;23.270;2022-10-18T00:55:08;0.93;;;0.83;;
1020;SDS011;499;42.648;23.270;2022-10-18T00:57:36;0.90;;;0.80;;
1020;SDS011;499;42.648;23.270;2022-10-18T01:00:05;0.90;;;0.77;;
1020;SDS011;499;42.648;23.270;2022-10-18T01:02:34;0.90;;;0.70;;
1020;SDS011;499;42.648;23.270;2022-10-18T01:05:02;0.90;;;0.70;;
1020;SDS011;499;42.648;23.270;2022-10-18T01:07:33;0.90;;;0.80;;
1020;SDS011;499;42.648;23.270;2022-10-18T01:10:12;1.00;;;0.77;;
1020;SDS011;499;42.648;23.270;2022-10-18T01:12:52;0.90;;;0.80;;
1020;SDS011;499;42.648;23.270;2022-10-18T01:15:38;1.00;;;0.90;;
1020;SDS011;499;42.648;23.270;2022-10-18T01:18:13;0.90;;;0.80;;
1020;SDS011;499;42.648;23.270;2022-10-18T01:24:05;0.90;;;0.80;;
1020;SDS011;499;42.648;23.270;2022-10-18T01:29:49;0.90;;;0.70;;
1020;SDS011;499;42.648;23.270;2022-10-18T01:32:37;0.90;;;0.80;;
1020;SDS011;499;42.648;23.270;2022-10-18T01:35:09;0.90;;;0.70;;
1020;SDS011;499;42.648;23.270;2022-10-18T01:37:39;0.93;;;0.83;;
1020;SDS011;499;42.648;23.270;2022-10-18T01:40:09;1.00;;;0.90;;
1020;SDS011;499;42.648;23.270;2022-10-18T01:42:39;1.83;;;1.00;;
1020;SDS011;499;42.648;23.270;2022-10-18T01:45:07;0.93;;;0.83;;
1020;SDS011;499;42.648;23.270;2022-10-18T01:47:37;1.53;;;1.43;;
1020;SDS011;499;42.648;23.270;2022-10-18T01:50:06;1.20;;;1.10;;
1020;SDS011;499;42.648;23.270;2022-10-18T01:52:33;1.10;;;1.00;;
1020;SDS011;499;42.648;23.270;2022-10-18T01:55:00;0.90;;;0.80;;
1020;SDS011;499;42.648;23.270;2022-10-18T01:57:31;1.00;;;0.90;;
1020;SDS011;499;42.648;23.270;2022-10-18T02:00:04;0.90;;;0.80;;
1020;SDS011;499;42.648;23.270;2022-10-18T02:02:41;0.90;;;0.80;;
1020;SDS011;499;42.648;23.270;2022-10-18T02:05:14;1.17;;;1.07;;
1020;SDS011;499;42.648;23.270;2022-10-18T02:07:49;1.00;;;0.90;;
1020;SDS011;499;42.648;23.270;2022-10-18T02:10:23;1.00;;;0.90;;
1020;SDS011;499;42.648;23.270;2022-10-18T02:12:55;0.90;;;0.80;;
1020;SDS011;499;42.648;23.270;2022-10-18T02:15:23;0.90;;;0.80;;
1020;SDS011;499;42.648;23.270;2022-10-18T02:17:56;0.90;;;0.80;;
1020;SDS011;499;42.648;23.270;2022-10-18T02:20:24;0.93;;;0.83;;
1020;SDS011;499;42.648;23.270;2022-10-18T02:22:53;1.00;;;0.90;;
1020;SDS011;499;42.648;23.270;2022-10-18T02:25:23;1.00;;;0.90;;
1020;SDS011;499;42.648;23.270;2022-10-18T02:27:53;1.63;;;1.53;;
1020;SDS011;499;42.648;23.270;2022-10-18T02:30:20;0.90;;;0.80;;
1020;SDS011;499;42.648;23.270;2022-10-18T02:32:52;0.90;;;0.80;;
1020;SDS011;499;42.648;23.270;2022-10-18T02:35:24;1.07;;;0.97;;
1020;SDS011;499;42.648;23.270;2022-10-18T02:37:54;1.00;;;0.90;;
1020;SDS011;499;42.648;23.270;2022-10-18T02:40:23;1.00;;;0.90;;
1020;SDS011;499;42.648;23.270;2022-10-18T02:42:53;1.30;;;1.20;;
1020;SDS011;499;42.648;23.270;2022-10-18T02:45:21;0.93;;;0.80;;
1020;SDS011;499;42.648;23.270;2022-10-18T02:47:50;0.90;;;0.80;;
1020;SDS011;499;42.648;23.270;2022-10-18T02:50:17;1.10;;;1.00;;
1020;SDS011;499;42.648;23.270;2022-10-18T02:52:46;0.90;;;0.70;;
1020;SDS011;499;42.648;23.270;2022-10-18T02:55:13;0.90;;;0.80;;
1020;SDS011;499;42.648;23.270;2022-10-18T02:57:40;0.90;;;0.80;;
1020;SDS011;499;42.648;23.270;2022-10-18T03:00:08;0.90;;;0.80;;
1020;SDS011;499;42.648;23.270;2022-10-18T03:02:35;0.90;;;0.80;;
1020;SDS011;499;42.648;23.270;2022-10-18T03:05:02;1.63;;;1.47;;
1020;SDS011;499;42.648;23.270;2022-10-18T03:07:30;1.10;;;0.87;;
1020;SDS011;499;42.648;23.270;2022-10-18T03:09:58;1.00;;;0.90;;
1020;SDS011;499;42.648;23.270;2022-10-18T03:12:25;0.97;;;0.87;;
1020;SDS011;499;42.648;23.270;2022-10-18T03:14:52;0.90;;;0.70;;
1020;SDS011;499;42.648;23.270;2022-10-18T03:17:19;1.00;;;0.90;;
1020;SDS011;499;42.648;23.270;2022-10-18T03:19:46;0.90;;;0.80;;
1020;SDS011;499;42.648;23.270;2022-10-18T03:22:13;0.90;;;0.80;;
1020;SDS011;499;42.648;23.270;2022-10-18T03:24:40;1.20;;;1.00;;
1020;SDS011;499;42.648;23.270;2022-10-18T03:27:09;0.90;;;0.80;;
1020;SDS011;499;42.648;23.270;2022-10-18T03:29:36;0.90;;;0.80;;
1020;SDS011;499;42.648;23.270;2022-10-18T03:32:03;1.07;;;0.97;;
1020;SDS011;499;42.648;23.270;2022-10-18T03:34:30;0.97;;;0.87;;
1020;SDS011;499;42.648;23.270;2022-10-18T03:36:58;1.10;;;1.00;;
1020;SDS011;499;42.648;23.270;2022-10-18T03:39:25;0.90;;;0.80;;
1020;SDS011;499;42.648;23.270;2022-10-18T03:41:52;1.20;;;1.10;;
1020;SDS011;499;42.648;23.270;2022-10-18T03:44:20;1.10;;;1.00;;
1020;SDS011;499;42.648;23.270;2022-10-18T03:46:48;1.00;;;0.90;;
1020;SDS011;499;42.648;23.270;2022-10-18T03:49:15;1.00;;;0.90;;
1020;SDS011;499;42.648;23.270;2022-10-18T03:51:42;0.90;;;0.80;;
1020;SDS011;499;42.648;23.270;2022-10-18T03:54:09;0.90;;;0.80;;
1020;SDS011;499;42.648;23.270;2022-10-18T03:56:36;0.90;;;0.80;;
1020;SDS011;499;42.648;23.270;2022-10-18T03:59:03;1.00;;;0.90;;
1020;SDS011;499;42.648;23.270;2022-10-18T04:01:31;0.90;;;0.80;;
1020;SDS011;499;42.648;23.270;2022-10-18T04:03:58;1.00;;;0.90;;
1020;SDS011;499;42.648;23.270;2022-10-18T04:06:25;0.90;;;0.80;;
1020;SDS011;499;42.648;23.270;2022-10-18T04:08:53;1.10;;;1.00;;
1020;SDS011;499;42.648;23.270;2022-10-18T04:11:20;1.00;;;0.90;;
1020;SDS011;499;42.648;23.270;2022-10-18T04:13:47;0.90;;;0.80;;
1020;SDS011;499;42.648;23.270;2022-10-18T04:16:14;0.90;;;0.80;;
1020;SDS011;499;42.648;23.270;2022-10-18T04:18:43;1.00;;;0.90;;
1020;SDS011;499;42.648;23.270;2022-10-18T04:21:10;1.10;;;1.00;;
1020;SDS011;499;42.648;23.270;2022-10-18T04:23:37;0.90;;;0.80;;
1020;SDS011;499;42.648;23.270;2022-10-18T04:26:04;1.00;;;0.90;;
1020;SDS011;499;42.648;23.270;2022-10-18T04:28:32;1.00;;;0.90;;
1020;SDS011;499;42.648;23.270;2022-10-18T04:31:04;1.00;;;0.90;;
1020;SDS011;499;42.648;23.270;2022-10-18T04:33:31;0.90;;;0.80;;
1020;SDS011;499;42.648;23.270;2022-10-18T04:36:00;1.00;;;0.90;;
1020;SDS011;499;42.648;23.270;2022-10-18T04:38:27;0.90;;;0.80;;
1020;SDS011;499;42.648;23.270;2022-10-18T04:40:54;1.47;;;1.37;;
1020;SDS011;499;42.648;23.270;2022-10-18T04:43:21;1.23;;;1.03;;
1020;SDS011;499;42.648;23.270;2022-10-18T04:45:48;1.00;;;0.90;;
1020;SDS011;499;42.648;23.270;2022-10-18T04:48:16;1.20;;;1.00;;
1020;SDS011;499;42.648;23.270;2022-10-18T04:50:46;0.90;;;0.80;;
1020;SDS011;499;42.648;23.270;2022-10-18T04:53:15;1.00;;;0.90;;
1020;SDS011;499;42.648;23.270;2022-10-18T04:55:43;1.00;;;0.90;;
1020;SDS011;499;42.648;23.270;2022-10-18T04:58:11;1.00;;;0.90;;
1020;SDS011;499;42.648;23.270;2022-10-18T05:00:38;0.90;;;0.80;;
1020;SDS011;499;42.648;23.270;2022-10-18T05:03:06;1.00;;;0.90;;
1020;SDS011;499;42.648;23.270;2022-10-18T05:05:33;0.87;;;0.80;;
1020;SDS011;499;42.648;23.270;2022-10-18T05:08:00;1.00;;;0.90;;
1020;SDS011;499;42.648;23.270;2022-10-18T05:10:29;0.97;;;0.87;;
1020;SDS011;499;42.648;23.270;2022-10-18T05:12:56;0.90;;;0.80;;
1020;SDS011;499;42.648;23.270;2022-10-18T05:15:23;0.90;;;0.70;;
1020;SDS011;499;42.648;23.270;2022-10-18T05:17:50;0.90;;;0.80;;
1020;SDS011;499;42.648;23.270;2022-10-18T05:20:17;0.80;;;0.70;;
1020;SDS011;499;42.648;23.270;2022-10-18T05:22:44;0.90;;;0.80;;
1020;SDS011;499;42.648;23.270;2022-10-18T05:25:11;1.30;;;1.00;;
1020;SDS011;499;42.648;23.270;2022-10-18T05:27:39;0.83;;;0.70;;
1020;SDS011;499;42.648;23.270;2022-10-18T05:30:07;0.90;;;0.77;;
1020;SDS011;499;42.648;23.270;2022-10-18T05:32:34;0.90;;;0.80;;
1020;SDS011;499;42.648;23.270;2022-10-18T05:35:01;1.33;;;1.07;;
1020;SDS011;499;42.648;23.270;2022-10-18T05:37:28;0.90;;;0.80;;
1020;SDS011;499;42.648;23.270;2022-10-18T05:39:55;0.90;;;0.70;;
1020;SDS011;499;42.648;23.270;2022-10-18T05:42:22;0.90;;;0.80;;
1020;SDS011;499;42.648;23.270;2022-10-18T05:44:51;1.47;;;1.37;;
1020;SDS011;499;42.648;23.270;2022-10-18T05:47:18;1.13;;;1.03;;
1020;SDS011;499;42.648;23.270;2022-10-18T05:49:45;1.20;;;0.90;;
1020;SDS011;499;42.648;23.270;2022-10-18T05:52:12;1.10;;;1.00;;
1020;SDS011;499;42.648;23.270;2022-10-18T05:54:41;1.20;;;1.00;;
1020;SDS011;499;42.648;23.270;2022-10-18T05:57:08;1.40;;;0.90;;
1020;SDS011;499;42.648;23.270;2022-10-18T05:59:35;1.10;;;0.90;;
1020;SDS011;499;42.648;23.270;2022-10-18T06:02:03;2.30;;;1.30;;
1020;SDS011;499;42.648;23.270;2022-10-18T06:04:30;0.90;;;0.70;;
1020;SDS011;499;42.648;23.270;2022-10-18T06:06:59;1.10;;;1.00;;
1020;SDS011;499;42.648;23.270;2022-10-18T06:09:26;0.90;;;0.67;;
1020;SDS011;499;42.648;23.270;2022-10-18T06:11:54;0.90;;;0.80;;
1020;SDS011;499;42.648;23.270;2022-10-18T06:14:22;0.90;;;0.70;;
1020;SDS011;499;42.648;23.270;2022-10-18T06:16:49;1.00;;;0.90;;
1020;SDS011;499;42.648;23.270;2022-10-18T06:19:18;1.03;;;0.93;;
1020;SDS011;499;42.648;23.270;2022-10-18T06:21:45;0.90;;;0.73;;
1020;SDS011;499;42.648;23.270;2022-10-18T06:24:12;0.90;;;0.80;;
1020;SDS011;499;42.648;23.270;2022-10-18T06:26:39;2.33;;;1.67;;
1020;SDS011;499;42.648;23.270;2022-10-18T06:29:06;1.00;;;0.80;;
1020;SDS011;499;42.648;23.270;2022-10-18T06:31:33;0.90;;;0.80;;
1020;SDS011;499;42.648;23.270;2022-10-18T06:34:00;1.23;;;1.13;;
1020;SDS011;499;42.648;23.270;2022-10-18T06:36:29;1.47;;;0.97;;
1020;SDS011;499;42.648;23.270;2022-10-18T06:38:56;1.00;;;0.87;;
1020;SDS011;499;42.648;23.270;2022-10-18T06:41:24;1.13;;;0.73;;
1020;SDS011;499;42.648;23.270;2022-10-18T06:43:52;1.10;;;0.90;;
1020;SDS011;499;42.648;23.270;2022-10-18T06:46:21;1.33;;;1.23;;
1020;SDS011;499;42.648;23.270;2022-10-18T06:48:48;0.90;;;0.80;;
1020;SDS011;499;42.648;23.270;2022-10-18T06:51:16;1.63;;;1.27;;
1020;SDS011;499;42.648;23.270;2022-10-18T06:53:46;1.00;;;0.90;;
1020;SDS011;499;42.648;23.270;2022-10-18T06:56:13;1.67;;;0.90;;
1020;SDS011;499;42.648;23.270;2022-10-18T06:58:40;1.20;;;1.10;;
1020;SDS011;499;42.648;23.270;2022-10-18T07:01:07;0.90;;;0.60;;
1020;SDS011;499;42.648;23.270;2022-10-18T07:03:35;0.90;;;0.70;;
1020;SDS011;499;42.648;23.270;2022-10-18T07:06:04;1.00;;;0.90;;
1020;SDS011;499;42.648;23.270;2022-10-18T07:08:32;2.80;;;2.60;;
1020;SDS011;499;42.648;23.270;2022-10-18T07:11:01;1.57;;;1.47;;
1020;SDS011;499;42.648;23.270;2022-10-18T07:13:29;0.90;;;0.73;;
1020;SDS011;499;42.648;23.270;2022-10-18T07:16:01;1.10;;;1.00;;
1020;SDS011;499;42.648;23.270;2022-10-18T07:18:29;1.00;;;0.90;;
1020;SDS011;499;42.648;23.270;2022-10-18T07:20:59;0.90;;;0.70;;
1020;SDS011;499;42.648;23.270;2022-10-18T07:23:27;1.10;;;0.83;;
1020;SDS011;499;42.648;23.270;2022-10-18T07:25:54;1.57;;;0.93;;
1020;SDS011;499;42.648;23.270;2022-10-18T07:28:23;1.50;;;1.40;;
1020;SDS011;499;42.648;23.270;2022-10-18T07:30:50;1.27;;;1.10;;
1020;SDS011;499;42.648;23.270;2022-10-18T07:33:17;1.30;;;1.03;;
1020;SDS011;499;42.648;23.270;2022-10-18T07:35:45;1.40;;;1.07;;
1020;SDS011;499;42.648;23.270;2022-10-18T07:38:12;1.30;;;1.10;;
1020;SDS011;499;42.648;23.270;2022-10-18T07:40:39;1.60;;;1.30;;
1020;SDS011;499;42.648;23.270;2022-10-18T07:43:06;1.00;;;0.90;;
1020;SDS011;499;42.648;23.270;2022-10-18T07:45:34;2.50;;;1.73;;
1020;SDS011;499;42.648;23.270;2022-10-18T07:48:02;1.20;;;0.90;;
1020;SDS011;499;42.648;23.270;2022-10-18T07:50:29;2.23;;;1.07;;
1020;SDS011;499;42.648;23.270;2022-10-18T07:52:56;1.93;;;1.00;;
1020;SDS011;499;42.648;23.270;2022-10-18T07:55:23;1.10;;;0.87;;
1020;SDS011;499;42.648;23.270;2022-10-18T07:57:50;1.03;;;0.77;;
1020;SDS011;499;42.648;23.270;2022-10-18T08:00:17;1.40;;;0.80;;
1020;SDS011;499;42.648;23.270;2022-10-18T08:02:46;1.47;;;1.00;;
1020;SDS011;499;42.648;23.270;2022-10-18T08:05:13;1.37;;;0.97;;
1020;SDS011;499;42.648;23.270;2022-10-18T08:07:41;1.10;;;1.00;;
1020;SDS011;499;42.648;23.270;2022-10-18T08:10:08;1.10;;;0.80;;
1020;SDS011;499;42.648;23.270;2022-10-18T08:12:35;1.10;;;0.90;;
1020;SDS011;499;42.648;23.270;2022-10-18T08:15:03;1.20;;;0.90;;
1020;SDS011;499;42.648;23.270;2022-10-18T08:17:30;1.67;;;1.07;;
1020;SDS011;499;42.648;23.270;2022-10-18T08:19:59;2.10;;;1.23;;
1020;SDS011;499;42.648;23.270;2022-10-18T08:22:26;2.30;;;1.10;;
1020;SDS011;499;42.648;23.270;2022-10-18T08:24:53;1.53;;;1.27;;
1020;SDS011;499;42.648;23.270;2022-10-18T08:27:20;1.93;;;1.43;;
1020;SDS011;499;42.648;23.270;2022-10-18T08:29:48;1.00;;;0.80;;
1020;SDS011;499;42.648;23.270;2022-10-18T08:32:16;2.10;;;1.17;;
1020;SDS011;499;42.648;23.270;2022-10-18T08:34:43;1.60;;;1.50;;
1020;SDS011;499;42.648;23.270;2022-10-18T08:37:12;1.10;;;0.87;;
1020;SDS011;499;42.648;23.270;2022-10-18T08:39:39;1.93;;;1.73;;
1020;SDS011;499;42.648;23.270;2022-10-18T08:42:09;5.27;;;3.73;;
1020;SDS011;499;42.648;23.270;2022-10-18T08:44:46;2.83;;;2.30;;
1020;SDS011;499;42.648;23.270;2022-10-18T08:47:15;1.87;;;1.70;;
1020;SDS011;499;42.648;23.270;2022-10-18T08:49:47;2.93;;;2.50;;
1020;SDS011;499;42.648;23.270;2022-10-18T08:52:22;1.60;;;1.20;;
1020;SDS011;499;42.648;23.270;2022-10-18T08:54:54;1.97;;;1.87;;
1020;SDS011;499;42.648;23.270;2022-10-18T08:57:27;3.73;;;2.13;;
1020;SDS011;499;42.648;23.270;2022-10-18T08:59:55;4.90;;;4.10;;
1020;SDS011;499;42.648;23.270;2022-10-18T09:02:26;5.00;;;4.50;;
1020;SDS011;499;42.648;23.270;2022-10-18T09:05:02;6.60;;;4.40;;
1020;SDS011;499;42.648;23.270;2022-10-18T09:07:48;4.63;;;3.20;;
1020;SDS011;499;42.648;23.270;2022-10-18T09:10:40;5.30;;;4.10;;
1020;SDS011;499;42.648;23.270;2022-10-18T09:13:15;7.47;;;4.30;;
1020;SDS011;499;42.648;23.270;2022-10-18T09:16:03;7.00;;;5.80;;
1020;SDS011;499;42.648;23.270;2022-10-18T09:18:36;5.77;;;4.23;;
1020;SDS011;499;42.648;23.270;2022-10-18T09:21:18;5.40;;;4.43;;
1020;SDS011;499;42.648;23.270;2022-10-18T09:23:48;4.23;;;3.53;;
1020;SDS011;499;42.648;23.270;2022-10-18T09:26:22;6.40;;;4.63;;
1020;SDS011;499;42.648;23.270;2022-10-18T09:28:54;5.57;;;3.97;;
1020;SDS011;499;42.648;23.270;2022-10-18T09:31:31;5.50;;;4.17;;
1020;SDS011;499;42.648;23.270;2022-10-18T09:34:09;4.60;;;4.20;;
1020;SDS011;499;42.648;23.270;2022-10-18T09:36:39;4.13;;;3.70;;
1020;SDS011;499;42.648;23.270;2022-10-18T09:39:10;4.50;;;3.50;;
1020;SDS011;499;42.648;23.270;2022-10-18T09:41:40;4.47;;;3.90;;
1020;SDS011;499;42.648;23.270;2022-10-18T09:44:13;4.20;;;2.83;;
1020;SDS011;499;42.648;23.270;2022-10-18T09:46:45;3.93;;;3.50;;
1020;SDS011;499;42.648;23.270;2022-10-18T09:49:16;5.40;;;4.27;;
1020;SDS011;499;42.648;23.270;2022-10-18T09:51:47;6.80;;;6.10;;
1020;SDS011;499;42.648;23.270;2022-10-18T09:57:01;5.07;;;3.80;;
1020;SDS011;499;42.648;23.270;2022-10-18T09:59:33;4.20;;;3.70;;
1020;SDS011;499;42.648;23.270;2022-10-18T10:02:02;3.67;;;2.97;;
1020;SDS011;499;42.648;23.270;2022-10-18T10:04:30;4.73;;;3.83;;
1020;SDS011;499;42.648;23.270;2022-10-18T10:06:58;3.63;;;3.03;;
1020;SDS011;499;42.648;23.270;2022-10-18T10:09:26;3.33;;;3.03;;
1020;SDS011;499;42.648;23.270;2022-10-18T10:11:56;3.13;;;2.67;;
1020;SDS011;499;42.648;23.270;2022-10-18T10:14:24;3.60;;;3.00;;
1020;SDS011;499;42.648;23.270;2022-10-18T10:16:53;4.13;;;3.20;;
1020;SDS011;499;42.648;23.270;2022-10-18T10:19:23;3.47;;;3.00;;
1020;SDS011;499;42.648;23.270;2022-10-18T10:22:01;3.93;;;3.53;;
1020;SDS011;499;42.648;23.270;2022-10-18T10:24:38;4.93;;;3.63;;
1020;SDS011;499;42.648;23.270;2022-10-18T10:27:15;3.40;;;2.87;;
1020;SDS011;499;42.648;23.270;2022-10-18T10:29:46;3.43;;;2.70;;
1020;SDS011;499;42.648;23.270;2022-10-18T10:32:22;3.40;;;2.90;;
1020;SDS011;499;42.648;23.270;2022-10-18T10:34:51;2.97;;;2.40;;
1020;SDS011;499;42.648;23.270;2022-10-18T10:37:26;3.60;;;2.90;;
1020;SDS011;499;42.648;23.270;2022-10-18T10:40:05;2.30;;;1.70;;
1020;SDS011;499;42.648;23.270;2022-10-18T10:42:55;3.47;;;2.97;;
1020;SDS011;499;42.648;23.270;2022-10-18T10:45:28;2.73;;;2.27;;
1020;SDS011;499;42.648;23.270;2022-10-18T10:48:01;3.20;;;2.40;;
1020;SDS011;499;42.648;23.270;2022-10-18T10:50:50;3.03;;;2.10;;
1020;SDS011;499;42.648;23.270;2022-10-18T10:53:36;2.93;;;2.40;;
1020;SDS011;499;42.648;23.270;2022-10-18T10:56:12;4.83;;;2.30;;
1020;SDS011;499;42.648;23.270;2022-10-18T10:58:43;3.73;;;3.03;;
1020;SDS011;499;42.648;23.270;2022-10-18T11:01:18;2.67;;;2.20;;
1020;SDS011;499;42.648;23.270;2022-10-18T11:03:54;2.30;;;1.70;;
1020;SDS011;499;42.648;23.270;2022-10-18T11:06:37;2.57;;;1.90;;
1020;SDS011;499;42.648;23.270;2022-10-18T11:09:31;2.53;;;2.20;;
1020;SDS011;499;42.648;23.270;2022-10-18T11:12:09;2.70;;;2.20;;
1020;SDS011;499;42.648;23.270;2022-10-18T11:14:56;2.57;;;1.97;;
1020;SDS011;499;42.648;23.270;2022-10-18T11:17:31;3.20;;;2.37;;
1020;SDS011;499;42.648;23.270;2022-10-18T11:20:09;3.67;;;2.50;;
1020;SDS011;499;42.648;23.270;2022-10-18T11:22:55;2.33;;;1.60;;
1020;SDS011;499;42.648;23.270;2022-10-18T11:25:27;3.00;;;1.93;;
1020;SDS011;499;42.648;23.270;2022-10-18T11:28:09;3.53;;;1.70;;
1020;SDS011;499;42.648;23.270;2022-10-18T11:30:48;3.87;;;2.47;;
1020;SDS011;499;42.648;23.270;2022-10-18T11:33:27;2.33;;;1.50;;
1020;SDS011;499;42.648;23.270;2022-10-18T11:36:03;2.70;;;1.90;;
1020;SDS011;499;42.648;23.270;2022-10-18T11:38:36;2.27;;;1.60;;
1020;SDS011;499;42.648;23.270;2022-10-18T11:41:16;3.37;;;3.07;;
1020;SDS011;499;42.648;23.270;2022-10-18T11:43:51;1.80;;;1.43;;
1020;SDS011;499;42.648;23.270;2022-10-18T11:46:27;1.87;;;1.57;;
1020;SDS011;499;42.648;23.270;2022-10-18T11:49:08;1.70;;;1.20;;
1020;SDS011;499;42.648;23.270;2022-10-18T11:51:48;2.23;;;1.43;;
1020;SDS011;499;42.648;23.270;2022-10-18T11:54:31;2.13;;;1.60;;
1020;SDS011;499;42.648;23.270;2022-10-18T11:57:11;2.20;;;1.47;;
1020;SDS011;499;42.648;23.270;2022-10-18T11:59:50;1.80;;;1.63;;
1020;SDS011;499;42.648;23.270;2022-10-18T12:02:43;1.80;;;1.40;;
1020;SDS011;499;42.648;23.270;2022-10-18T12:05:21;2.43;;;1.40;;
1020;SDS011;499;42.648;23.270;2022-10-18T12:07:50;2.63;;;1.70;;
1020;SDS011;499;42.648;23.270;2022-10-18T12:10:21;2.03;;;1.57;;
1020;SDS011;499;42.648;23.270;2022-10-18T12:12:50;1.90;;;1.60;;
1020;SDS011;499;42.648;23.270;2022-10-18T12:15:22;1.60;;;1.17;;
1020;SDS011;499;42.648;23.270;2022-10-18T12:17:54;1.57;;;1.10;;
1020;SDS011;499;42.648;23.270;2022-10-18T12:20:24;2.30;;;1.27;;
1020;SDS011;499;42.648;23.270;2022-10-18T12:22:58;1.93;;;1.37;;
1020;SDS011;499;42.648;23.270;2022-10-18T12:25:28;1.20;;;0.80;;
1020;SDS011;499;42.648;23.270;2022-10-18T12:27:59;2.40;;;1.63;;
1020;SDS011;499;42.648;23.270;2022-10-18T12:30:34;2.07;;;1.47;;
1020;SDS011;499;42.648;23.270;2022-10-18T12:33:09;1.80;;;1.47;;
1020;SDS011;499;42.648;23.270;2022-10-18T12:35:44;3.17;;;1.60;;
1020;SDS011;499;42.648;23.270;2022-10-18T12:38:21;2.03;;;1.30;;
1020;SDS011;499;42.648;23.270;2022-10-18T12:40:52;2.33;;;1.40;;
1020;SDS011;499;42.648;23.270;2022-10-18T12:43:21;2.53;;;1.53;;
1020;SDS011;499;42.648;23.270;2022-10-18T12:45:51;1.57;;;1.10;;
1020;SDS011;499;42.648;23.270;2022-10-18T12:48:32;2.37;;;0.93;;
1020;SDS011;499;42.648;23.270;2022-10-18T12:51:04;2.33;;;1.63;;
1020;SDS011;499;42.648;23.270;2022-10-18T12:53:38;2.57;;;1.37;;
1020;SDS011;499;42.648;23.270;2022-10-18T13:02:24;1.30;;;0.90;;
1020;SDS011;499;42.648;23.270;2022-10-18T13:04:55;1.37;;;0.80;;
1020;SDS011;499;42.648;23.270;2022-10-18T13:07:33;2.07;;;1.20;;
1020;SDS011;499;42.648;23.270;2022-10-18T13:15:59;1.57;;;1.10;;
1020;SDS011;499;42.648;23.270;2022-10-18T13:18:32;1.60;;;1.20;;
1020;SDS011;499;42.648;23.270;2022-10-18T13:21:13;1.70;;;0.90;;
1020;SDS011;499;42.648;23.270;2022-10-18T13:23:48;1.57;;;0.93;;
1020;SDS011;499;42.648;23.270;2022-10-18T13:26:32;1.70;;;0.93;;
1020;SDS011;499;42.648;23.270;2022-10-18T13:29:08;1.50;;;1.00;;
1020;SDS011;499;42.648;23.270;2022-10-18T13:31:54;1.37;;;0.83;;
1020;SDS011;499;42.648;23.270;2022-10-18T13:34:29;1.50;;;0.80;;
1020;SDS011;499;42.648;23.270;2022-10-18T13:37:01;1.30;;;0.83;;
1020;SDS011;499;42.648;23.270;2022-10-18T13:39:30;1.37;;;0.87;;
1020;SDS011;499;42.648;23.270;2022-10-18T13:47:56;1.60;;;0.80;;
1020;SDS011;499;42.648;23.270;2022-10-18T13:51:05;1.40;;;1.00;;
1020;SDS011;499;42.648;23.270;2022-10-18T13:53:56;1.27;;;0.80;;
1020;SDS011;499;42.648;23.270;2022-10-18T13:59:25;1.93;;;1.30;;
1020;SDS011;499;42.648;23.270;2022-10-18T14:02:10;1.63;;;0.90;;
1020;SDS011;499;42.648;23.270;2022-10-18T14:04:58;1.53;;;1.00;;
1020;SDS011;499;42.648;23.270;2022-10-18T14:07:43;3.17;;;1.70;;
1020;SDS011;499;42.648;23.270;2022-10-18T14:10:16;1.40;;;0.83;;
1020;SDS011;499;42.648;23.270;2022-10-18T14:12:50;1.53;;;0.87;;
1020;SDS011;499;42.648;23.270;2022-10-18T14:15:23;2.20;;;1.00;;
1020;SDS011;499;42.648;23.270;2022-10-18T14:17:53;1.47;;;0.90;;
1020;SDS011;499;42.648;23.270;2022-10-18T14:20:26;1.37;;;0.90;;
1020;SDS011;499;42.648;23.270;2022-10-18T14:23:00;1.40;;;0.90;;
1020;SDS011;499;42.648;23.270;2022-10-18T14:25:32;1.20;;;0.90;;
1020;SDS011;499;42.648;23.270;2022-10-18T14:28:02;1.40;;;0.90;;
1020;SDS011;499;42.648;23.270;2022-10-18T14:30:30;1.17;;;0.80;;
1020;SDS011;499;42.648;23.270;2022-10-18T14:32:57;1.73;;;0.80;;
1020;SDS011;499;42.648;23.270;2022-10-18T14:35:25;1.10;;;0.70;;
1020;SDS011;499;42.648;23.270;2022-10-18T14:37:55;1.30;;;1.00;;
1020;SDS011;499;42.648;23.270;2022-10-18T14:40:26;1.63;;;0.90;;
1020;SDS011;499;42.648;23.270;2022-10-18T14:43:00;1.90;;;1.50;;
1020;SDS011;499;42.648;23.270;2022-10-18T14:45:29;1.40;;;1.00;;
1020;SDS011;499;42.648;23.270;2022-10-18T14:50:53;1.47;;;1.10;;
1020;SDS011;499;42.648;23.270;2022-10-18T14:53:26;1.70;;;0.80;;
1020;SDS011;499;42.648;23.270;2022-10-18T14:56:01;1.17;;;0.70;;
1020;SDS011;499;42.648;23.270;2022-10-18T14:58:30;1.83;;;1.27;;
1020;SDS011;499;42.648;23.270;2022-10-18T15:01:00;1.20;;;0.80;;
1020;SDS011;499;42.648;23.270;2022-10-18T15:03:30;1.40;;;0.87;;
1020;SDS011;499;42.648;23.270;2022-10-18T15:06:01;1.23;;;0.90;;
1020;SDS011;499;42.648;23.270;2022-10-18T15:08:33;2.23;;;1.07;;
1020;SDS011;499;42.648;23.270;2022-10-18T15:11:05;1.40;;;0.90;;
1020;SDS011;499;42.648;23.270;2022-10-18T15:13:35;1.40;;;0.90;;
1020;SDS011;499;42.648;23.270;2022-10-18T15:16:09;1.30;;;0.90;;
1020;SDS011;499;42.648;23.270;2022-10-18T15:18:41;1.20;;;0.90;;
1020;SDS011;499;42.648;23.270;2022-10-18T15:21:18;1.30;;;0.90;;
1020;SDS011;499;42.648;23.270;2022-10-18T15:23:48;1.00;;;0.80;;
1020;SDS011;499;42.648;23.270;2022-10-18T15:26:20;1.33;;;0.87;;
1020;SDS011;499;42.648;23.270;2022-10-18T15:28:51;1.30;;;0.90;;
1020;SDS011;499;42.648;23.270;2022-10-18T15:31:25;1.20;;;0.77;;
1020;SDS011;499;42.648;23.270;2022-10-18T15:34:05;1.30;;;1.00;;
1020;SDS011;499;42.648;23.270;2022-10-18T15:36:35;1.00;;;0.70;;
1020;SDS011;499;42.648;23.270;2022-10-18T15:39:04;1.30;;;0.90;;
1020;SDS011;499;42.648;23.270;2022-10-18T15:41:44;1.33;;;0.80;;
1020;SDS011;499;42.648;23.270;2022-10-18T15:44:19;2.57;;;1.30;;
1020;SDS011;499;42.648;23.270;2022-10-18T15:47:12;1.20;;;0.90;;
1020;SDS011;499;42.648;23.270;2022-10-18T15:49:50;1.17;;;0.80;;
1020;SDS011;499;42.648;23.270;2022-10-18T15:52:27;1.30;;;1.00;;
1020;SDS011;499;42.648;23.270;2022-10-18T15:58:04;1.80;;;1.13;;
1020;SDS011;499;42.648;23.270;2022-10-18T16:00:37;1.97;;;1.47;;
1020;SDS011;499;42.648;23.270;2022-10-18T16:03:06;1.70;;;1.33;;
1020;SDS011;499;42.648;23.270;2022-10-18T16:05:33;1.87;;;1.47;;
1020;SDS011;499;42.648;23.270;2022-10-18T16:08:01;1.70;;;1.40;;
1020;SDS011;499;42.648;23.270;2022-10-18T16:10:29;1.57;;;1.23;;
1020;SDS011;499;42.648;23.270;2022-10-18T16:12:56;1.20;;;0.80;;
1020;SDS011;499;42.648;23.270;2022-10-18T16:15:25;1.30;;;1.00;;